createdAt,value
2019-04-03T00:03:24.106Z,14.67
2019-04-03T00:06:12.905Z,15.40
2019-04-03T00:09:01.724Z,14.33
2019-04-03T00:11:50.527Z,12.83
2019-04-03T00:14:42.409Z,11.70
2019-04-03T00:17:30.342Z,18.97
2019-04-03T00:20:20.742Z,19.53
2019-04-03T00:23:09.624Z,16.43
2019-04-03T00:25:58.449Z,13.63
2019-04-03T00:28:40.278Z,14.47
2019-04-03T00:31:29.352Z,15.00
2019-04-03T00:37:27.371Z,11.57
2019-04-03T00:40:16.253Z,15.00
2019-04-03T00:43:05.063Z,13.55
2019-04-03T00:45:54.628Z,15.13
2019-04-03T00:48:44.436Z,23.70
2019-04-03T00:51:33.329Z,14.40
2019-04-03T00:54:22.256Z,21.60
2019-04-03T00:57:11.060Z,13.05
2019-04-03T00:59:59.859Z,11.90
2019-04-03T01:02:48.749Z,20.63
2019-04-03T01:05:37.548Z,14.87
2019-04-03T01:08:29.035Z,11.80
2019-04-03T01:11:16.968Z,13.77
2019-04-03T01:14:24.949Z,13.07
2019-04-03T01:17:13.768Z,15.53
2019-04-03T01:23:29.599Z,15.27
2019-04-03T01:26:18.415Z,13.97
2019-04-03T01:28:59.843Z,17.63
2019-04-03T01:32:07.693Z,20.57
2019-04-03T01:34:56.483Z,15.70
2019-04-03T01:37:45.501Z,13.80
2019-04-03T01:40:35.886Z,14.50
2019-04-03T01:43:24.659Z,15.13
2019-04-03T01:46:13.593Z,15.10
2019-04-03T01:49:02.471Z,16.80
2019-04-03T01:51:51.368Z,20.90
2019-04-03T01:54:40.304Z,14.90
2019-04-03T01:57:29.233Z,15.00
2019-04-03T02:03:26.167Z,14.43
2019-04-03T02:06:15.153Z,13.73
2019-04-03T02:12:19.710Z,16.50
2019-04-03T02:15:09.653Z,17.80
2019-04-03T02:18:19.336Z,17.53
2019-04-03T02:21:08.680Z,17.60
2019-04-03T02:23:57.576Z,21.87
2019-04-03T02:26:46.485Z,14.68
2019-04-03T02:29:28.067Z,14.80
2019-04-03T02:32:16.892Z,16.80
2019-04-03T02:35:26.595Z,14.70
2019-04-03T02:38:15.419Z,16.97
2019-04-03T02:41:05.183Z,18.20
2019-04-03T02:43:54.754Z,21.10
2019-04-03T02:46:43.557Z,23.50
2019-04-03T02:49:32.386Z,17.00
2019-04-03T02:52:24.074Z,17.53
2019-04-03T02:55:11.995Z,19.07
2019-04-03T02:58:00.818Z,18.50
2019-04-03T03:00:49.635Z,16.60
2019-04-03T03:03:38.426Z,20.97
2019-04-03T03:06:27.309Z,15.27
2019-04-03T03:09:16.300Z,30.90
2019-04-03T03:12:05.190Z,15.63
2019-04-03T03:14:54.059Z,19.57
2019-04-03T03:17:42.982Z,17.90
2019-04-03T03:20:32.148Z,20.90
2019-04-03T03:23:23.120Z,14.80
2019-04-03T03:26:12.065Z,21.20
2019-04-03T03:28:55.747Z,18.50
2019-04-03T03:32:01.412Z,19.90
2019-04-03T03:34:52.055Z,30.40
2019-04-03T03:37:26.686Z,18.85
2019-04-03T03:40:16.826Z,24.20
2019-04-03T03:43:06.777Z,19.63
2019-04-03T03:45:56.880Z,21.73
2019-04-03T03:48:47.239Z,23.60
2019-04-03T03:51:36.068Z,20.77
2019-04-03T04:01:08.340Z,20.53
2019-04-03T04:03:57.195Z,23.90
2019-04-03T04:06:46.018Z,26.50
2019-04-03T04:09:34.827Z,25.67
2019-04-03T04:12:24.320Z,24.07
2019-04-03T04:15:14.524Z,27.53
2019-04-03T04:18:24.230Z,23.07
2019-04-03T04:21:13.597Z,21.73
2019-04-03T04:24:02.391Z,22.40
2019-04-03T04:26:51.293Z,25.20
2019-04-03T04:29:33.222Z,23.20
2019-04-03T04:32:22.133Z,18.20
2019-04-03T04:35:12.511Z,27.23
2019-04-03T04:38:01.324Z,21.40
2019-04-03T04:41:09.219Z,20.23
2019-04-03T04:43:58.355Z,20.93
2019-04-03T04:46:47.162Z,19.20
2019-04-03T04:49:35.966Z,21.17
2019-04-03T04:52:27.131Z,25.27
2019-04-03T04:55:15.313Z,31.37
2019-04-03T04:58:04.907Z,28.87
2019-04-03T05:00:54.659Z,23.50
2019-04-03T05:03:43.469Z,22.30
2019-04-03T05:06:32.293Z,18.90
2019-04-03T05:09:21.273Z,25.37
2019-04-03T05:12:11.640Z,18.90
2019-04-03T05:15:00.435Z,25.90
2019-04-03T05:17:50.622Z,32.90
2019-04-03T05:20:39.854Z,23.10
2019-04-03T05:29:11.224Z,18.37
2019-04-03T05:32:00.135Z,16.90
2019-04-03T05:34:49.107Z,18.60
2019-04-03T05:37:39.522Z,22.03
2019-04-03T05:40:28.309Z,22.00
2019-04-03T05:43:17.131Z,23.50
2019-04-03T05:46:06.347Z,26.20
2019-04-03T05:48:56.533Z,28.67
2019-04-03T05:54:53.158Z,19.67
2019-04-03T05:57:44.936Z,21.90
2019-04-03T06:00:32.662Z,18.83
2019-04-03T06:03:37.636Z,18.00
2019-04-03T06:06:14.424Z,21.60
2019-04-03T06:12:19.404Z,22.47
2019-04-03T06:15:10.093Z,19.93
2019-04-03T06:20:34.509Z,17.97
2019-04-03T06:23:23.314Z,17.90
2019-04-03T06:26:12.288Z,15.57
2019-04-03T06:29:02.897Z,14.47
2019-04-03T06:31:53.192Z,18.30
2019-04-03T06:34:43.209Z,17.80
2019-04-03T06:37:32.601Z,18.27
2019-04-03T06:40:21.497Z,15.83
2019-04-03T06:43:10.377Z,16.13
2019-04-03T06:45:59.268Z,18.83
2019-04-03T06:48:48.190Z,18.63
2019-04-03T06:51:37.104Z,15.87
2019-04-03T06:54:26.014Z,38.23
2019-04-03T06:57:14.880Z,17.17
2019-04-03T07:03:18.964Z,22.73
2019-04-03T07:06:07.829Z,16.27
2019-04-03T07:08:56.721Z,14.53
2019-04-03T07:11:45.689Z,14.17
2019-04-03T07:14:34.590Z,29.70
2019-04-03T07:17:23.363Z,16.67
2019-04-03T07:20:15.384Z,19.87
2019-04-03T07:23:02.724Z,17.90
2019-04-03T07:25:51.533Z,18.17
2019-04-03T07:28:41.594Z,15.87
2019-04-03T07:31:24.423Z,17.23
2019-04-03T07:34:13.251Z,15.47
2019-04-03T07:37:02.084Z,15.55
2019-04-03T07:39:51.180Z,15.23
2019-04-03T07:42:40.020Z,15.07
2019-04-03T07:45:28.831Z,16.13
2019-04-03T07:48:17.666Z,22.30
2019-04-03T07:51:07.024Z,13.73
2019-04-03T07:53:56.082Z,15.60
2019-04-03T07:56:46.467Z,16.83
2019-04-03T07:59:35.276Z,17.80
2019-04-03T08:02:24.106Z,19.43
2019-04-03T08:05:13.089Z,13.20
2019-04-03T08:08:02.508Z,17.87
2019-04-03T08:10:52.873Z,18.83
2019-04-03T08:13:43.015Z,18.73
2019-04-03T08:16:31.831Z,17.47
2019-04-03T08:19:22.689Z,17.27
2019-04-03T08:22:11.563Z,13.55
2019-04-03T08:25:00.403Z,14.27
2019-04-03T08:27:49.443Z,16.10
2019-04-03T08:30:32.573Z,19.90
2019-04-03T08:33:26.025Z,15.67
2019-04-03T08:36:23.301Z,19.97
2019-04-03T08:39:02.440Z,19.77
2019-04-03T08:41:51.268Z,22.70
2019-04-03T08:44:40.084Z,19.13
2019-04-03T08:47:28.891Z,17.70
2019-04-03T08:50:17.796Z,18.13
2019-04-03T08:53:08.363Z,14.97
2019-04-03T08:55:57.147Z,19.17
2019-04-03T08:58:46.070Z,20.80
2019-04-03T09:01:37.023Z,20.83
2019-04-03T09:04:25.677Z,21.50
2019-04-03T09:07:15.938Z,18.53
2019-04-03T09:10:25.678Z,17.77
2019-04-03T09:13:17.737Z,17.97
2019-04-03T09:16:05.604Z,17.60
2019-04-03T09:18:56.006Z,17.50
2019-04-03T09:21:48.616Z,15.67
2019-04-03T09:24:35.343Z,24.23
2019-04-03T09:27:24.176Z,17.87
2019-04-03T09:30:10.655Z,15.53
2019-04-03T09:33:00.357Z,16.30
2019-04-03T09:35:49.991Z,10.60
2019-04-03T09:38:40.521Z,13.80
2019-04-03T09:41:29.572Z,9.17
2019-04-03T09:44:19.963Z,17.83
2019-04-03T09:47:08.784Z,14.30
2019-04-03T09:49:57.590Z,13.40
2019-04-03T09:52:49.961Z,8.60
2019-04-03T09:55:37.830Z,11.70
2019-04-03T09:58:27.553Z,13.20
2019-04-03T10:01:18.459Z,11.27
2019-04-03T10:04:06.896Z,11.57
2019-04-03T10:06:55.694Z,13.57
2019-04-03T10:09:38.942Z,9.17
2019-04-03T10:12:28.028Z,8.53
2019-04-03T10:15:18.727Z,14.33
2019-04-03T10:18:09.557Z,15.37
2019-04-03T10:20:58.021Z,15.23
2019-04-03T10:23:46.824Z,14.33
2019-04-03T10:26:35.642Z,12.40
2019-04-03T10:29:24.455Z,14.80
2019-04-03T10:32:13.291Z,16.10
2019-04-03T10:35:02.424Z,20.30
2019-04-03T10:37:53.019Z,19.17
2019-04-03T10:40:43.183Z,21.23
2019-04-03T10:43:32.073Z,27.67
2019-04-03T10:46:21.748Z,29.55
2019-04-03T10:49:10.638Z,23.07
2019-04-03T10:51:59.483Z,25.50
2019-04-03T10:54:49.991Z,22.77
2019-04-03T10:57:40.672Z,21.20
2019-04-03T11:00:29.908Z,14.23
2019-04-03T11:03:20.035Z,20.80
2019-04-03T11:06:08.830Z,18.67
2019-04-03T11:08:57.887Z,19.53
2019-04-03T11:11:42.970Z,20.50
2019-04-03T11:14:31.875Z,31.67
2019-04-03T11:17:21.014Z,15.32
2019-04-03T11:20:11.029Z,18.73
2019-04-03T11:23:06.874Z,15.35
2019-04-03T11:25:51.482Z,15.07
2019-04-03T11:28:41.817Z,15.00
2019-04-03T11:31:41.464Z,16.93
2019-04-03T11:34:28.423Z,22.00
2019-04-03T11:37:17.245Z,13.10
2019-04-03T11:40:26.975Z,13.60
2019-04-03T11:43:15.775Z,4.87
2019-04-03T11:46:04.984Z,6.10
2019-04-03T11:48:55.393Z,9.00
2019-04-03T11:51:45.730Z,7.53
2019-04-03T11:54:34.530Z,20.70
2019-04-03T11:57:26.128Z,5.90
2019-04-03T12:00:53.823Z,4.67
2019-04-03T12:03:42.916Z,4.17
2019-04-03T12:06:32.042Z,6.00
2019-04-03T12:09:22.258Z,7.60
2019-04-03T12:12:03.851Z,3.70
2019-04-03T12:14:52.660Z,6.13
2019-04-03T12:17:41.523Z,5.50
2019-04-03T12:20:30.525Z,6.77
2019-04-03T12:23:19.383Z,8.20
2019-04-03T12:26:10.513Z,4.63
2019-04-03T12:28:59.021Z,5.33
2019-04-03T12:31:49.250Z,4.60
2019-04-03T12:34:38.288Z,7.00
2019-04-03T12:37:28.603Z,3.63
2019-04-03T12:40:18.163Z,4.53
2019-04-03T12:43:06.989Z,5.80
2019-04-03T12:45:57.767Z,5.57
2019-04-03T12:48:46.569Z,6.87
2019-04-03T12:51:35.845Z,4.50
2019-04-03T12:54:26.059Z,18.50
2019-04-03T12:57:14.864Z,6.80
2019-04-03T13:03:19.357Z,4.93
2019-04-03T13:06:10.682Z,5.67
2019-04-03T13:08:59.834Z,7.10
2019-04-03T13:11:41.906Z,8.80
2019-04-03T13:14:32.668Z,16.43
2019-04-03T13:17:21.575Z,6.73
2019-04-03T13:20:11.878Z,6.40
2019-04-03T13:23:00.695Z,5.70
2019-04-03T13:25:50.991Z,6.63
2019-04-03T13:28:40.945Z,6.60
2019-04-03T13:31:30.885Z,4.90
2019-04-03T13:34:21.121Z,12.10
2019-04-03T13:37:09.933Z,6.07
2019-04-03T13:40:00.517Z,6.10
2019-04-03T13:42:49.664Z,6.00
2019-04-03T13:45:40.028Z,6.60
2019-04-03T13:48:30.795Z,9.43
2019-04-03T13:51:22.227Z,6.70
2019-04-03T13:54:12.702Z,6.67
2019-04-03T13:57:03.148Z,10.67
2019-04-03T13:59:55.389Z,5.37
2019-04-03T14:02:46.005Z,5.37
2019-04-03T14:05:34.924Z,6.03
2019-04-03T14:08:25.040Z,3.17
2019-04-03T14:11:14.011Z,3.10
2019-04-03T14:13:56.210Z,7.80
2019-04-03T14:16:45.444Z,9.57
2019-04-03T14:19:43.320Z,5.63
2019-04-03T14:22:26.207Z,5.20
2019-04-03T14:25:20.515Z,9.27
2019-04-03T14:28:05.810Z,11.10
2019-04-03T14:30:56.162Z,5.60
2019-04-03T14:33:46.787Z,6.65
2019-04-03T14:36:35.883Z,6.50
2019-04-03T14:39:26.160Z,6.40
2019-04-03T14:42:16.597Z,4.60
2019-04-03T14:45:26.301Z,6.20
2019-04-03T14:48:15.120Z,6.50
2019-04-03T14:51:06.324Z,8.17
2019-04-03T14:53:54.625Z,12.77
2019-04-03T14:56:43.423Z,9.13
2019-04-03T14:59:34.660Z,4.80
2019-04-03T15:02:23.804Z,6.60
2019-04-03T15:05:13.368Z,2.50
2019-04-03T15:08:04.918Z,6.30
2019-04-03T15:10:52.714Z,4.87
2019-04-03T15:13:34.387Z,7.07
2019-04-03T15:16:23.278Z,8.17
2019-04-03T15:19:14.103Z,8.47
2019-04-03T15:22:03.060Z,9.53
2019-04-03T15:24:53.175Z,7.33
2019-04-03T15:27:42.481Z,7.27
2019-04-03T15:30:32.955Z,5.90
2019-04-03T15:33:24.875Z,3.10
2019-04-03T15:36:13.668Z,5.50
2019-04-03T15:41:58.160Z,6.60
2019-04-03T15:44:46.968Z,8.17
2019-04-03T15:47:39.098Z,7.60
2019-04-03T15:50:28.352Z,7.33
2019-04-03T15:53:17.065Z,12.60
2019-04-03T15:56:05.903Z,6.87
2019-04-03T15:58:55.042Z,6.80
2019-04-03T16:01:45.689Z,5.87
2019-04-03T16:04:35.994Z,6.50
2019-04-03T16:07:25.270Z,7.00
2019-04-03T16:10:15.473Z,6.77
2019-04-03T16:12:56.830Z,4.00
2019-04-03T16:16:05.140Z,6.13
2019-04-03T16:18:53.960Z,4.83
2019-04-03T16:21:42.807Z,7.97
2019-04-03T16:24:31.569Z,15.93
2019-04-03T16:27:20.607Z,9.67
2019-04-03T16:30:14.222Z,4.60
2019-04-03T16:33:04.365Z,7.60
2019-04-03T16:38:46.960Z,7.17
2019-04-03T16:41:37.702Z,5.77
2019-04-03T16:44:27.461Z,18.20
2019-04-03T16:47:17.231Z,5.90
2019-04-03T16:50:27.319Z,7.50
2019-04-03T16:53:16.136Z,7.90
2019-04-03T16:56:06.564Z,7.10
2019-04-03T16:58:55.780Z,10.00
2019-04-03T17:01:46.337Z,2.47
2019-04-03T17:04:37.584Z,5.30
2019-04-03T17:07:26.986Z,3.63
2019-04-03T17:10:15.941Z,5.60
2019-04-03T17:12:58.036Z,5.20
2019-04-03T17:15:46.852Z,8.77
2019-04-03T17:18:35.653Z,9.63
2019-04-03T17:21:27.292Z,7.33
2019-04-03T17:24:17.375Z,10.80
2019-04-03T17:27:05.763Z,12.63
2019-04-03T17:29:56.421Z,14.77
2019-04-03T17:35:39.657Z,10.07
2019-04-03T17:38:31.516Z,11.67
2019-04-03T17:41:19.001Z,8.90
2019-04-03T17:44:07.812Z,5.50
2019-04-03T17:46:56.629Z,12.40
2019-04-03T17:49:45.435Z,7.40
2019-04-03T17:52:36.044Z,8.80
2019-04-03T17:55:24.774Z,11.70
2019-04-03T17:58:16.414Z,11.78
2019-04-03T18:00:44.462Z,5.97
2019-04-03T18:03:33.304Z,6.27
2019-04-03T18:06:22.559Z,21.02
2019-04-03T18:09:11.442Z,21.80
2019-04-03T18:12:00.306Z,10.03
2019-04-03T18:14:42.783Z,6.37
2019-04-03T18:17:31.804Z,9.30
2019-04-03T18:20:22.145Z,15.47
2019-04-03T18:23:10.961Z,7.70
2019-04-03T18:26:00.282Z,8.00
2019-04-03T18:28:50.308Z,10.43
2019-04-03T18:31:39.127Z,8.40
2019-04-03T18:34:27.964Z,16.63
2019-04-03T18:37:16.786Z,8.20
2019-04-03T18:40:24.942Z,12.27
2019-04-03T18:43:13.741Z,9.05
2019-04-03T18:46:02.574Z,17.10
2019-04-03T18:48:54.624Z,6.70
2019-04-03T18:51:41.912Z,10.20
2019-04-03T18:54:30.744Z,21.90
2019-04-03T18:57:19.556Z,8.37
2019-04-03T19:00:28.848Z,9.67
2019-04-03T19:03:18.218Z,5.07
2019-04-03T19:06:07.036Z,5.93
2019-04-03T19:08:55.850Z,9.00
2019-04-03T19:11:44.657Z,4.42
2019-04-03T19:14:27.541Z,22.33
2019-04-03T19:17:16.802Z,6.70
2019-04-03T19:20:27.040Z,12.57
2019-04-03T19:23:15.846Z,8.25
2019-04-03T19:26:04.679Z,11.67
2019-04-03T19:28:53.476Z,8.67
2019-04-03T19:31:42.319Z,10.63
2019-04-03T19:34:31.132Z,19.33
2019-04-03T19:37:19.925Z,5.23
2019-04-03T19:43:37.204Z,9.20
2019-04-03T19:46:26.013Z,7.00
2019-04-03T19:49:14.808Z,9.90
2019-04-03T19:52:03.604Z,6.23
2019-04-03T19:54:52.417Z,7.80
2019-04-03T19:57:41.276Z,7.87
2019-04-03T20:00:30.129Z,6.97
2019-04-03T20:03:18.950Z,8.20
2019-04-03T20:05:50.871Z,9.23
2019-04-03T20:08:38.979Z,17.20
2019-04-03T20:11:27.801Z,15.27
2019-04-03T20:14:11.285Z,16.37
2019-04-03T20:16:59.944Z,12.77
2019-04-03T20:19:48.746Z,10.10
2019-04-03T20:22:18.220Z,13.87
2019-04-03T20:25:07.268Z,17.10
2019-04-03T20:27:57.070Z,16.60
2019-04-03T20:30:46.675Z,14.30
2019-04-03T20:33:35.506Z,18.87
2019-04-03T20:36:24.303Z,17.83
2019-04-03T20:39:13.139Z,21.67
2019-04-03T20:42:03.460Z,13.10
2019-04-03T20:44:52.580Z,12.80
2019-04-03T20:47:41.631Z,14.70
2019-04-03T20:50:30.468Z,18.30
2019-04-03T20:53:19.379Z,12.87
2019-04-03T20:56:08.175Z,10.73
2019-04-03T20:58:56.969Z,8.20
2019-04-03T21:01:45.947Z,12.10
2019-04-03T21:04:34.749Z,23.83
2019-04-03T21:07:24.477Z,10.00
2019-04-03T21:10:14.384Z,7.47
2019-04-03T21:13:03.201Z,6.93
2019-04-03T21:15:52.388Z,8.77
2019-04-03T21:18:42.604Z,12.40
2019-04-03T21:21:31.456Z,7.07
2019-04-03T21:24:20.248Z,7.37
2019-04-03T21:27:09.442Z,7.00
2019-04-03T21:29:59.579Z,8.40
2019-04-03T21:32:48.394Z,8.97
2019-04-03T21:35:37.189Z,10.73
2019-04-03T21:38:26.013Z,7.30
2019-04-03T21:41:14.811Z,6.13
2019-04-03T21:44:03.626Z,9.60
2019-04-03T21:46:52.445Z,11.00
2019-04-03T21:49:41.244Z,18.63
2019-04-03T21:52:30.062Z,18.00
2019-04-03T21:55:18.964Z,23.40
2019-04-03T21:58:08.934Z,17.07
2019-04-03T22:01:19.250Z,22.77
2019-04-03T22:04:08.130Z,6.47
2019-04-03T22:06:57.871Z,9.83
2019-04-03T22:09:40.343Z,8.13
2019-04-03T22:12:29.214Z,9.28
2019-04-03T22:15:18.038Z,5.40
2019-04-03T22:18:07.079Z,5.57
2019-04-03T22:20:56.100Z,10.97
2019-04-03T22:23:44.879Z,6.77
2019-04-03T22:26:33.710Z,5.40
2019-04-03T22:29:22.623Z,5.60
2019-04-03T22:32:11.438Z,5.50
2019-04-03T22:35:01.019Z,8.00
2019-04-03T22:37:50.770Z,6.20
2019-04-03T22:40:40.731Z,4.93
2019-04-03T22:43:30.103Z,4.17
2019-04-03T22:46:21.763Z,6.67
2019-04-03T22:49:09.423Z,9.43
2019-04-03T22:51:58.227Z,7.60
2019-04-03T22:54:47.036Z,4.93
2019-04-03T22:57:35.828Z,5.30
2019-04-03T23:00:43.674Z,11.50
2019-04-03T23:03:33.891Z,8.10
2019-04-03T23:06:16.871Z,7.70
2019-04-03T23:09:27.508Z,4.67
2019-04-03T23:12:16.430Z,6.22
2019-04-03T23:15:08.643Z,6.90
2019-04-03T23:17:56.933Z,9.03
2019-04-03T23:20:45.801Z,6.17
2019-04-03T23:23:53.718Z,5.07
2019-04-03T23:26:42.554Z,12.10
2019-04-03T23:29:31.343Z,5.37
2019-04-03T23:32:20.173Z,6.33
2019-04-03T23:35:09.105Z,7.60
2019-04-03T23:37:57.920Z,8.70
2019-04-03T23:40:47.020Z,5.67
2019-04-03T23:43:35.839Z,3.23
2019-04-03T23:46:24.653Z,8.03
2019-04-03T23:49:13.469Z,4.83
2019-04-03T23:52:02.266Z,7.20
2019-04-03T23:54:51.072Z,4.23
2019-04-03T23:57:40.513Z,8.70
